createdAt,value
2023-02-07T00:01:07.444Z,-7.07
2023-02-07T00:04:10.931Z,-7.15
2023-02-07T00:07:14.150Z,-7.17
2023-02-07T00:10:17.629Z,-7.19
2023-02-07T00:13:20.726Z,-7.20
2023-02-07T00:16:26.351Z,-7.09
2023-02-07T00:19:29.330Z,-7.10
2023-02-07T00:22:32.829Z,-7.15
2023-02-07T00:25:36.374Z,-7.19
2023-02-07T00:28:40.260Z,-7.22
2023-02-07T00:31:43.811Z,-7.20
2023-02-07T00:34:50.782Z,-7.23
2023-02-07T00:37:55.715Z,-7.22
2023-02-07T00:41:01.678Z,-7.26
2023-02-07T00:44:06.187Z,-7.28
2023-02-07T00:47:09.538Z,-7.36
2023-02-07T00:50:14.606Z,-7.41
2023-02-07T00:53:18.976Z,-7.50
2023-02-07T00:56:24.745Z,-7.55
2023-02-07T00:59:28.272Z,-7.57
2023-02-07T01:02:31.690Z,-7.66
2023-02-07T01:05:35.657Z,-7.66
2023-02-07T01:08:39.749Z,-7.69
2023-02-07T01:11:43.326Z,-7.74
2023-02-07T01:14:46.634Z,-7.78
2023-02-07T01:17:50.387Z,-7.78
2023-02-07T01:20:53.626Z,-7.78
2023-02-07T01:23:57.412Z,-7.82
2023-02-07T01:27:00.635Z,-7.79
2023-02-07T01:30:05.349Z,-7.79
2023-02-07T01:33:08.907Z,-7.78
2023-02-07T01:36:14.940Z,-7.84
2023-02-07T01:39:18.178Z,-7.84
2023-02-07T01:42:25.220Z,-7.85
2023-02-07T01:45:35.767Z,-7.83
2023-02-07T01:48:39.484Z,-7.81
2023-02-07T01:51:46.986Z,-7.87
2023-02-07T01:54:55.145Z,-7.89
2023-02-07T01:57:59.185Z,-7.97
2023-02-07T02:01:05.811Z,-7.95
2023-02-07T02:04:09.161Z,-7.97
2023-02-07T02:07:13.974Z,-7.98
2023-02-07T02:10:23.653Z,-8.02
2023-02-07T02:13:29.707Z,-8.03
2023-02-07T02:17:00.346Z,-8.08
2023-02-07T02:20:29.263Z,-8.09
2023-02-07T02:23:43.753Z,-8.09
2023-02-07T02:27:18.239Z,-8.13
2023-02-07T02:30:53.028Z,-8.13
2023-02-07T02:34:22.900Z,-8.20
2023-02-07T02:37:40.831Z,-8.19
2023-02-07T02:41:17.300Z,-8.20
2023-02-07T02:44:46.384Z,-8.24
2023-02-07T02:47:52.155Z,-8.26
2023-02-07T02:50:56.809Z,-8.25
2023-02-07T02:54:02.613Z,-8.22
2023-02-07T02:57:58.025Z,-8.19
2023-02-07T03:01:36.041Z,-8.14
2023-02-07T03:05:24.560Z,-8.15
2023-02-07T03:08:44.226Z,-8.21
2023-02-07T03:12:19.417Z,-8.25
2023-02-07T03:15:35.614Z,-8.22
2023-02-07T03:19:06.531Z,-8.17
2023-02-07T03:22:13.456Z,-8.19
2023-02-07T03:25:20.962Z,-8.19
2023-02-07T03:28:26.669Z,-8.19
2023-02-07T03:31:30.786Z,-8.16
2023-02-07T03:35:00.884Z,-8.18
2023-02-07T03:38:05.197Z,-8.10
2023-02-07T03:41:16.853Z,-8.12
2023-02-07T03:44:22.343Z,-8.12
2023-02-07T03:47:26.766Z,-8.09
2023-02-07T03:50:29.946Z,-8.09
2023-02-07T03:53:33.588Z,-8.08
2023-02-07T03:56:37.651Z,-8.10
2023-02-07T03:59:41.048Z,-8.13
2023-02-07T04:02:44.257Z,-8.19
2023-02-07T04:05:49.662Z,-8.18
2023-02-07T04:08:52.871Z,-8.14
2023-02-07T04:11:56.388Z,-8.15
2023-02-07T04:15:01.242Z,-8.20
2023-02-07T04:18:05.949Z,-8.25
2023-02-07T04:21:10.962Z,-8.29
2023-02-07T04:24:14.624Z,-8.30
2023-02-07T04:27:18.085Z,-8.28
2023-02-07T04:30:21.717Z,-8.32
2023-02-07T04:33:24.826Z,-8.36
2023-02-07T04:36:29.986Z,-8.40
2023-02-07T04:39:33.293Z,-8.39
2023-02-07T04:42:36.719Z,-8.39
2023-02-07T04:45:40.144Z,-8.45
2023-02-07T04:48:43.842Z,-8.44
2023-02-07T04:51:47.030Z,-8.43
2023-02-07T04:54:50.477Z,-8.47
2023-02-07T04:57:53.637Z,-8.47
2023-02-07T05:00:57.396Z,-8.49
2023-02-07T05:04:00.560Z,-8.49
2023-02-07T05:07:04.939Z,-8.55
2023-02-07T05:10:09.865Z,-8.62
2023-02-07T05:13:13.469Z,-8.60
2023-02-07T05:16:17.216Z,-8.57
2023-02-07T05:19:20.833Z,-8.57
2023-02-07T05:22:24.403Z,-8.59
2023-02-07T05:25:27.989Z,-8.58
2023-02-07T05:28:31.191Z,-8.58
2023-02-07T05:31:53.153Z,-8.59
2023-02-07T05:35:11.850Z,-8.61
2023-02-07T05:38:17.993Z,-8.61
2023-02-07T05:41:21.106Z,-8.70
2023-02-07T05:44:24.458Z,-8.68
2023-02-07T05:47:27.752Z,-8.69
2023-02-07T05:50:31.688Z,-8.67
2023-02-07T05:53:39.616Z,-8.76
2023-02-07T05:56:42.977Z,-8.77
2023-02-07T05:59:46.063Z,-8.78
2023-02-07T06:02:49.910Z,-8.76
2023-02-07T06:05:53.411Z,-8.84
2023-02-07T06:08:58.016Z,-8.68
2023-02-07T06:12:03.128Z,-8.60
2023-02-07T06:15:11.031Z,-8.54
2023-02-07T06:18:15.482Z,-8.37
2023-02-07T06:21:20.343Z,-8.25
2023-02-07T06:24:23.863Z,-8.23
2023-02-07T06:27:28.089Z,-8.16
2023-02-07T06:30:31.730Z,-8.13
2023-02-07T06:33:35.213Z,-8.06
2023-02-07T06:36:39.059Z,-7.98
2023-02-07T06:39:42.161Z,-7.94
2023-02-07T06:42:45.954Z,-7.90
2023-02-07T06:45:49.224Z,-7.87
2023-02-07T06:48:52.829Z,-7.81
2023-02-07T06:51:56.152Z,-7.78
2023-02-07T06:54:59.606Z,-7.71
2023-02-07T06:58:03.003Z,-7.60
2023-02-07T07:01:06.810Z,-7.53
2023-02-07T07:04:10.073Z,-7.46
2023-02-07T07:07:14.062Z,-7.38
2023-02-07T07:10:17.465Z,-7.30
2023-02-07T07:13:21.277Z,-7.27
2023-02-07T07:16:24.119Z,-7.19
2023-02-07T07:19:28.247Z,-7.20
2023-02-07T07:22:31.625Z,-7.21
2023-02-07T07:25:35.368Z,-7.04
2023-02-07T07:28:39.202Z,-7.05
2023-02-07T07:31:46.662Z,-7.51
2023-02-07T07:34:50.499Z,-6.92
2023-02-07T07:37:54.246Z,-6.87
2023-02-07T07:40:57.702Z,-6.86
2023-02-07T07:44:01.066Z,-6.65
2023-02-07T07:47:04.553Z,-6.61
2023-02-07T07:50:08.634Z,-6.99
2023-02-07T07:53:11.770Z,-6.49
2023-02-07T07:56:15.082Z,-6.42
2023-02-07T07:59:23.860Z,-6.28
2023-02-07T08:02:28.388Z,-6.26
2023-02-07T08:05:32.048Z,-6.23
2023-02-07T08:08:35.145Z,-6.24
2023-02-07T08:11:47.128Z,-6.04
2023-02-07T08:14:50.202Z,-6.23
2023-02-07T08:17:53.711Z,-6.10
2023-02-07T08:20:57.007Z,-6.23
2023-02-07T08:24:00.685Z,-6.28
2023-02-07T08:27:04.132Z,-6.14
2023-02-07T08:30:09.451Z,-6.21
2023-02-07T08:33:12.771Z,-6.08
2023-02-07T08:36:16.222Z,-5.82
2023-02-07T08:39:21.022Z,-5.78
2023-02-07T08:42:25.765Z,-5.86
2023-02-07T08:45:29.088Z,-6.05
2023-02-07T08:48:33.319Z,-5.88
2023-02-07T08:51:36.573Z,-5.83
2023-02-07T08:54:40.316Z,-6.02
2023-02-07T08:57:44.950Z,-5.75
2023-02-07T09:00:48.481Z,-5.59
2023-02-07T09:03:56.796Z,-5.69
2023-02-07T09:07:01.585Z,-5.55
2023-02-07T09:10:07.585Z,-5.36
2023-02-07T09:13:12.786Z,-5.75
2023-02-07T09:16:16.145Z,-5.58
2023-02-07T09:19:20.943Z,-5.26
2023-02-07T09:22:24.028Z,-5.29
2023-02-07T09:25:27.466Z,-4.81
2023-02-07T09:28:30.916Z,-5.17
2023-02-07T09:31:34.960Z,-5.12
2023-02-07T09:34:39.287Z,-5.25
2023-02-07T09:37:49.414Z,-4.95
2023-02-07T09:40:54.223Z,-4.96
2023-02-07T09:44:15.961Z,-4.58
2023-02-07T09:47:22.312Z,-4.31
2023-02-07T09:50:37.982Z,-4.67
2023-02-07T09:53:45.301Z,-4.55
2023-02-07T09:56:48.827Z,-4.31
2023-02-07T09:59:55.941Z,-4.21
2023-02-07T10:03:09.606Z,-4.32
2023-02-07T10:06:20.694Z,-4.41
2023-02-07T10:09:29.214Z,-4.28
2023-02-07T10:13:02.279Z,-4.01
2023-02-07T10:16:08.188Z,-4.24
2023-02-07T10:19:23.719Z,-4.06
2023-02-07T10:22:31.754Z,-3.79
2023-02-07T10:26:15.671Z,-3.81
2023-02-07T10:29:37.723Z,-4.20
2023-02-07T10:32:43.564Z,-3.73
2023-02-07T10:35:47.271Z,-3.42
2023-02-07T10:39:28.248Z,-3.45
2023-02-07T10:42:33.804Z,-2.98
2023-02-07T10:45:40.582Z,-3.23
2023-02-07T10:48:43.948Z,-2.84
2023-02-07T10:51:47.865Z,-2.86
2023-02-07T10:54:54.697Z,-2.78
2023-02-07T10:58:06.426Z,-2.98
2023-02-07T11:01:20.857Z,-2.97
2023-02-07T11:04:44.455Z,-2.67
2023-02-07T11:08:27.294Z,-3.00
2023-02-07T11:11:33.021Z,-2.79
2023-02-07T11:14:36.405Z,-2.36
2023-02-07T11:17:48.365Z,-2.30
2023-02-07T11:20:53.424Z,-2.77
2023-02-07T11:24:05.228Z,-2.40
2023-02-07T11:27:11.204Z,-2.18
2023-02-07T11:30:21.692Z,-2.45
2023-02-07T11:33:28.292Z,-1.82
2023-02-07T11:36:34.002Z,-1.61
2023-02-07T11:39:37.109Z,-1.44
2023-02-07T11:42:41.561Z,-1.35
2023-02-07T11:45:50.729Z,-1.23
2023-02-07T11:48:57.778Z,-1.15
2023-02-07T11:52:02.263Z,-0.78
2023-02-07T11:55:09.004Z,-0.69
2023-02-07T11:58:21.482Z,0.00
2023-02-07T12:01:29.181Z,0.39
2023-02-07T12:04:38.576Z,0.63
2023-02-07T12:07:47.085Z,1.15
2023-02-07T12:10:55.126Z,0.97
2023-02-07T12:14:09.777Z,1.65
2023-02-07T12:17:17.957Z,2.74
2023-02-07T12:20:25.464Z,2.91
2023-02-07T12:23:54.603Z,1.64
2023-02-07T12:26:57.683Z,2.12
2023-02-07T12:30:18.367Z,3.62
2023-02-07T12:33:23.042Z,4.30
2023-02-07T12:36:36.701Z,3.45
2023-02-07T12:39:44.708Z,4.20
2023-02-07T12:43:13.628Z,3.44
2023-02-07T12:46:26.157Z,4.12
2023-02-07T12:49:35.393Z,4.84
2023-02-07T12:52:53.664Z,5.88
2023-02-07T12:56:02.648Z,5.09
2023-02-07T12:59:27.941Z,4.63
2023-02-07T13:03:08.858Z,5.13
2023-02-07T13:06:17.811Z,6.20
2023-02-07T13:09:36.781Z,5.50
2023-02-07T13:12:52.034Z,4.39
2023-02-07T13:16:00.650Z,6.42
2023-02-07T13:19:16.088Z,4.29
2023-02-07T13:22:28.922Z,4.59
2023-02-07T13:25:38.646Z,6.29
2023-02-07T13:28:57.615Z,7.23
2023-02-07T13:32:03.409Z,9.61
2023-02-07T13:35:13.033Z,5.67
2023-02-07T13:38:19.051Z,7.16
2023-02-07T13:41:34.603Z,8.12
2023-02-07T13:44:49.489Z,5.79
2023-02-07T13:48:24.788Z,7.31
2023-02-07T13:51:44.487Z,6.14
2023-02-07T13:55:06.183Z,7.63
2023-02-07T13:58:54.984Z,6.72
2023-02-07T14:01:59.792Z,8.18
2023-02-07T14:05:09.585Z,6.79
2023-02-07T14:08:16.400Z,6.95
2023-02-07T14:11:50.620Z,7.31
2023-02-07T14:15:02.617Z,7.63
2023-02-07T14:18:29.378Z,7.49
2023-02-07T14:21:40.365Z,6.09
2023-02-07T14:25:03.720Z,6.17
2023-02-07T14:28:07.673Z,6.59
2023-02-07T14:31:25.974Z,5.55
2023-02-07T14:34:59.630Z,4.89
2023-02-07T14:38:17.968Z,6.41
2023-02-07T14:41:29.281Z,4.29
2023-02-07T14:44:36.201Z,6.34
2023-02-07T14:47:39.428Z,5.02
2023-02-07T14:50:52.177Z,5.30
2023-02-07T14:54:16.807Z,6.26
2023-02-07T14:57:44.006Z,5.66
2023-02-07T15:00:50.660Z,7.86
2023-02-07T15:04:02.501Z,6.43
2023-02-07T15:07:12.715Z,6.73
2023-02-07T15:10:17.571Z,5.19
2023-02-07T15:13:44.430Z,5.63
2023-02-07T15:16:48.558Z,5.28
2023-02-07T15:19:56.346Z,4.96
2023-02-07T15:23:02.137Z,2.92
2023-02-07T15:26:06.126Z,2.84
2023-02-07T15:29:26.182Z,3.18
2023-02-07T15:32:33.743Z,2.53
2023-02-07T15:35:42.144Z,2.23
2023-02-07T15:38:46.260Z,2.43
2023-02-07T15:41:51.962Z,0.77
2023-02-07T15:44:56.129Z,0.96
2023-02-07T15:48:14.634Z,0.36
2023-02-07T15:51:25.558Z,0.27
2023-02-07T15:54:29.283Z,-0.28
2023-02-07T15:57:37.344Z,-0.50
2023-02-07T16:00:41.764Z,-0.81
2023-02-07T16:03:46.807Z,-1.12
2023-02-07T16:07:02.916Z,-1.41
2023-02-07T16:10:38.085Z,-1.28
2023-02-07T16:14:01.265Z,-1.39
2023-02-07T16:17:04.845Z,-1.39
2023-02-07T16:20:13.794Z,-1.52
2023-02-07T16:23:17.780Z,-1.60
2023-02-07T16:26:25.561Z,-1.58
2023-02-07T16:29:29.517Z,-1.73
2023-02-07T16:32:34.564Z,-1.84
2023-02-07T16:35:37.982Z,-1.95
2023-02-07T16:38:40.978Z,-2.06
2023-02-07T16:41:47.235Z,-2.15
2023-02-07T16:44:50.613Z,-2.27
2023-02-07T16:47:55.522Z,-2.38
2023-02-07T16:51:01.546Z,-2.44
2023-02-07T16:54:05.740Z,-2.50
2023-02-07T16:57:10.622Z,-2.54
2023-02-07T17:00:17.224Z,-2.62
2023-02-07T17:03:22.228Z,-2.73
2023-02-07T17:06:28.287Z,-2.83
2023-02-07T17:09:31.501Z,-2.85
2023-02-07T17:12:35.249Z,-2.84
2023-02-07T17:15:38.562Z,-3.00
2023-02-07T17:18:42.448Z,-3.04
2023-02-07T17:21:48.156Z,-3.08
2023-02-07T17:24:54.163Z,-3.14
2023-02-07T17:27:58.364Z,-3.23
2023-02-07T17:31:01.943Z,-3.33
2023-02-07T17:34:06.192Z,-3.37
2023-02-07T17:37:13.535Z,-3.38
2023-02-07T17:40:23.206Z,-3.41
2023-02-07T17:43:27.889Z,-3.44
2023-02-07T17:46:35.711Z,-3.48
2023-02-07T17:49:47.163Z,-3.50
2023-02-07T17:52:53.471Z,-3.48
2023-02-07T17:55:59.054Z,-3.57
2023-02-07T17:59:06.405Z,-3.65
2023-02-07T18:02:11.388Z,-3.68
2023-02-07T18:05:18.835Z,-3.73
2023-02-07T18:08:24.496Z,-3.78
2023-02-07T18:11:28.943Z,-3.87
2023-02-07T18:14:33.301Z,-3.97
2023-02-07T18:17:39.790Z,-3.97
2023-02-07T18:20:45.765Z,-3.97
2023-02-07T18:23:54.508Z,-4.03
2023-02-07T18:26:58.991Z,-4.06
2023-02-07T18:30:06.995Z,-4.12
2023-02-07T18:33:14.331Z,-4.12
2023-02-07T18:36:23.748Z,-4.14
2023-02-07T18:39:30.031Z,-4.20
2023-02-07T18:42:35.233Z,-4.25
2023-02-07T18:45:43.715Z,-4.25
2023-02-07T18:48:53.124Z,-4.27
2023-02-07T18:51:58.558Z,-4.32
2023-02-07T18:55:04.317Z,-4.35
2023-02-07T18:58:08.931Z,-4.35
2023-02-07T19:01:19.315Z,-4.40
2023-02-07T19:04:25.553Z,-4.40
2023-02-07T19:07:31.533Z,-4.47
2023-02-07T19:10:35.670Z,-4.42
2023-02-07T19:13:42.316Z,-4.36
2023-02-07T19:16:50.138Z,-4.41
2023-02-07T19:19:54.701Z,-4.40
2023-02-07T19:22:59.243Z,-4.44
2023-02-07T19:26:06.339Z,-4.50
2023-02-07T19:29:12.224Z,-4.58
2023-02-07T19:32:17.613Z,-4.59
2023-02-07T19:35:22.789Z,-4.66
2023-02-07T19:38:27.931Z,-4.70
2023-02-07T19:41:33.536Z,-4.70
2023-02-07T19:44:40.382Z,-4.79
2023-02-07T19:47:48.136Z,-4.78
2023-02-07T19:51:06.883Z,-4.80
2023-02-07T19:54:11.589Z,-4.81
2023-02-07T19:57:17.944Z,-4.87
2023-02-07T20:00:24.311Z,-4.90
2023-02-07T20:03:33.376Z,-4.78
2023-02-07T20:06:39.358Z,-4.78
2023-02-07T20:09:59.620Z,-4.85
2023-02-07T20:13:07.010Z,-4.86
2023-02-07T20:16:18.872Z,-4.93
2023-02-07T20:19:25.151Z,-4.95
2023-02-07T20:22:35.646Z,-4.99
2023-02-07T20:25:40.968Z,-5.04
2023-02-07T20:28:50.724Z,-5.13
2023-02-07T20:31:57.906Z,-5.17
2023-02-07T20:35:03.583Z,-5.21
2023-02-07T20:38:09.745Z,-5.30
2023-02-07T20:41:29.725Z,-5.34
2023-02-07T20:44:35.611Z,-5.37
2023-02-07T20:47:42.888Z,-5.35
2023-02-07T20:50:49.228Z,-5.31
2023-02-07T20:53:57.636Z,-5.31
2023-02-07T20:57:02.840Z,-5.33
2023-02-07T21:00:10.926Z,-5.33
2023-02-07T21:03:16.124Z,-5.36
2023-02-07T21:06:24.662Z,-5.36
2023-02-07T21:09:29.845Z,-5.45
2023-02-07T21:12:34.818Z,-5.50
2023-02-07T21:15:40.064Z,-5.54
2023-02-07T21:18:47.962Z,-5.57
2023-02-07T21:21:52.055Z,-5.60
2023-02-07T21:24:56.312Z,-5.63
2023-02-07T21:28:00.426Z,-5.70
2023-02-07T21:31:10.223Z,-5.66
2023-02-07T21:34:16.175Z,-5.63
2023-02-07T21:37:21.201Z,-5.69
2023-02-07T21:40:26.525Z,-5.67
2023-02-07T21:43:30.416Z,-5.68
2023-02-07T21:46:39.594Z,-5.74
2023-02-07T21:49:55.740Z,-5.80
2023-02-07T21:53:04.423Z,-5.90
2023-02-07T21:56:10.924Z,-5.91
2023-02-07T21:59:16.415Z,-5.95
2023-02-07T22:02:20.590Z,-5.99
2023-02-07T22:05:24.506Z,-5.98
2023-02-07T22:08:27.579Z,-5.91
2023-02-07T22:11:33.383Z,-5.83
2023-02-07T22:14:36.249Z,-5.86
2023-02-07T22:17:39.505Z,-5.93
2023-02-07T22:20:42.791Z,-5.92
2023-02-07T22:23:46.484Z,-5.95
2023-02-07T22:26:49.684Z,-5.96
2023-02-07T22:29:53.269Z,-5.95
2023-02-07T22:32:56.460Z,-5.95
2023-02-07T22:36:00.127Z,-5.92
2023-02-07T22:39:05.423Z,-5.96
2023-02-07T22:42:08.873Z,-6.04
2023-02-07T22:45:12.105Z,-6.10
2023-02-07T22:48:16.953Z,-6.14
2023-02-07T22:51:21.145Z,-6.16
2023-02-07T22:54:24.598Z,-6.20
2023-02-07T22:57:27.659Z,-6.26
2023-02-07T23:00:31.141Z,-6.28
2023-02-07T23:03:34.971Z,-6.29
2023-02-07T23:06:38.380Z,-6.30
2023-02-07T23:09:41.597Z,-6.33
2023-02-07T23:12:45.122Z,-6.31
2023-02-07T23:15:48.768Z,-6.36
2023-02-07T23:18:54.003Z,-6.37
2023-02-07T23:22:00.636Z,-6.37
2023-02-07T23:25:05.538Z,-6.39
2023-02-07T23:28:08.745Z,-6.48
2023-02-07T23:31:14.172Z,-6.45
2023-02-07T23:34:17.645Z,-6.46
2023-02-07T23:37:22.528Z,-6.48
2023-02-07T23:40:26.000Z,-6.51
2023-02-07T23:43:31.088Z,-6.55
2023-02-07T23:46:35.752Z,-6.57
2023-02-07T23:49:39.378Z,-6.65
2023-02-07T23:52:42.851Z,-6.70
2023-02-07T23:55:46.423Z,-6.70
2023-02-07T23:58:51.028Z,-6.70
